createdAt,value
2022-09-26T00:01:12.912Z,100833.53
2022-09-26T00:03:39.433Z,100826.50
2022-09-26T00:06:08.308Z,100823.19
2022-09-26T00:08:37.053Z,100816.94
2022-09-26T00:11:05.881Z,100819.66
2022-09-26T00:13:34.510Z,100809.69
2022-09-26T00:16:01.122Z,100807.81
2022-09-26T00:18:27.525Z,100799.28
2022-09-26T00:20:54.158Z,100799.06
2022-09-26T00:23:20.534Z,100787.00
2022-09-26T00:25:51.528Z,100785.34
2022-09-26T00:28:19.413Z,100775.59
2022-09-26T00:30:46.006Z,100771.44
2022-09-26T00:33:12.693Z,100761.69
2022-09-26T00:35:39.238Z,100748.78
2022-09-26T00:38:05.686Z,100741.91
2022-09-26T00:40:32.989Z,100728.41
2022-09-26T00:42:59.537Z,100727.34
2022-09-26T00:45:30.461Z,100722.56
2022-09-26T00:47:59.412Z,100718.81
2022-09-26T00:50:30.672Z,100715.53
2022-09-26T00:53:07.447Z,100723.81
2022-09-26T00:55:38.527Z,100703.25
2022-09-26T00:58:14.513Z,100704.72
2022-09-26T01:00:43.621Z,100690.56
2022-09-26T01:03:10.147Z,100688.28
2022-09-26T01:05:37.827Z,100681.88
2022-09-26T01:08:05.839Z,100673.75
2022-09-26T01:10:35.244Z,100663.16
2022-09-26T01:13:02.360Z,100661.09
2022-09-26T01:15:29.974Z,100648.22
2022-09-26T01:17:56.969Z,100636.97
2022-09-26T01:20:25.655Z,100640.88
2022-09-26T01:23:29.826Z,100643.59
2022-09-26T01:26:14.378Z,100628.44
2022-09-26T01:28:58.197Z,100631.34
2022-09-26T01:32:27.327Z,100619.28
2022-09-26T01:35:26.809Z,100612.84
2022-09-26T01:38:32.454Z,100602.63
2022-09-26T01:41:26.312Z,100589.78
2022-09-26T01:44:26.378Z,100601.44
2022-09-26T01:47:04.014Z,100588.78
2022-09-26T01:49:55.915Z,100579.47
2022-09-26T01:52:42.941Z,100576.34
2022-09-26T01:55:15.098Z,100566.78
2022-09-26T01:57:53.138Z,100558.88
2022-09-26T02:00:19.986Z,100560.97
2022-09-26T02:02:49.668Z,100554.75
2022-09-26T02:05:46.809Z,100552.88
2022-09-26T02:08:36.509Z,100545.16
2022-09-26T02:11:12.997Z,100532.69
2022-09-26T02:13:51.730Z,100537.06
2022-09-26T02:16:23.561Z,100523.56
2022-09-26T02:19:02.476Z,100524.41
2022-09-26T02:21:28.901Z,100520.47
2022-09-26T02:23:55.317Z,100506.97
2022-09-26T02:26:23.095Z,100500.91
2022-09-26T02:28:51.121Z,100500.75
2022-09-26T02:31:23.489Z,100497.22
2022-09-26T02:33:51.690Z,100497.81
2022-09-26T02:36:19.878Z,100482.91
2022-09-26T02:38:46.471Z,100479.16
2022-09-26T02:42:01.144Z,100475.63
2022-09-26T02:44:38.710Z,100475.84
2022-09-26T02:47:18.300Z,100466.94
2022-09-26T02:50:08.280Z,100469.28
2022-09-26T02:52:48.430Z,100448.06
2022-09-26T02:55:26.889Z,100442.69
2022-09-26T02:58:21.170Z,100445.78
2022-09-26T03:01:16.015Z,100439.78
2022-09-26T03:03:54.067Z,100427.50
2022-09-26T03:06:27.476Z,100428.97
2022-09-26T03:08:56.637Z,100425.66
2022-09-26T03:11:25.659Z,100416.31
2022-09-26T03:13:56.169Z,100414.63
2022-09-26T03:16:27.563Z,100405.03
2022-09-26T03:19:14.397Z,100398.66
2022-09-26T03:21:41.315Z,100392.19
2022-09-26T03:24:08.071Z,100383.66
2022-09-26T03:26:35.574Z,100378.09
2022-09-26T03:29:03.516Z,100378.31
2022-09-26T03:31:32.833Z,100376.25
2022-09-26T03:34:05.672Z,100368.78
2022-09-26T03:36:32.406Z,100357.59
2022-09-26T03:39:00.729Z,100361.53
2022-09-26T03:41:37.226Z,100360.06
2022-09-26T03:44:17.434Z,100347.59
2022-09-26T03:47:05.015Z,100345.53
2022-09-26T03:49:36.211Z,100330.38
2022-09-26T03:52:03.764Z,100329.94
2022-09-26T03:54:30.537Z,100328.88
2022-09-26T03:56:57.194Z,100320.78
2022-09-26T03:59:23.583Z,100306.69
2022-09-26T04:01:51.306Z,100304.84
2022-09-26T04:04:17.684Z,100301.78
2022-09-26T04:06:45.034Z,100286.19
2022-09-26T04:09:16.750Z,100286.16
2022-09-26T04:11:47.289Z,100281.34
2022-09-26T04:14:13.885Z,100269.09
2022-09-26T04:16:41.344Z,100265.41
2022-09-26T04:19:26.590Z,100265.84
2022-09-26T04:21:53.030Z,100258.56
2022-09-26T04:24:21.241Z,100256.94
2022-09-26T04:26:48.064Z,100256.78
2022-09-26T04:29:15.322Z,100238.75
2022-09-26T04:32:05.489Z,100236.53
2022-09-26T04:35:04.097Z,100239.13
2022-09-26T04:37:30.481Z,100224.44
2022-09-26T04:39:57.116Z,100221.31
2022-09-26T04:42:25.103Z,100216.56
2022-09-26T04:44:51.504Z,100210.78
2022-09-26T04:47:17.910Z,100211.22
2022-09-26T04:50:02.686Z,100208.53
2022-09-26T04:52:30.254Z,100194.59
2022-09-26T04:54:56.701Z,100191.13
2022-09-26T04:57:23.837Z,100191.75
2022-09-26T04:59:50.333Z,100184.31
2022-09-26T05:02:17.207Z,100180.56
2022-09-26T05:04:44.120Z,100179.78
2022-09-26T05:07:11.179Z,100175.22
2022-09-26T05:09:37.746Z,100166.13
2022-09-26T05:12:13.193Z,100162.78
2022-09-26T05:14:44.258Z,100151.31
2022-09-26T05:17:11.656Z,100153.59
2022-09-26T05:19:39.002Z,100147.78
2022-09-26T05:22:30.136Z,100139.75
2022-09-26T05:25:15.140Z,100134.16
2022-09-26T05:27:41.990Z,100120.72
2022-09-26T05:30:08.890Z,100115.56
2022-09-26T05:32:35.251Z,100098.91
2022-09-26T05:35:05.125Z,100100.72
2022-09-26T05:37:33.552Z,100101.78
2022-09-26T05:40:18.874Z,100092.19
2022-09-26T05:42:49.757Z,100092.00
2022-09-26T05:45:16.208Z,100087.47
2022-09-26T05:47:43.229Z,100086.03
2022-09-26T05:50:10.761Z,100081.91
2022-09-26T05:52:39.757Z,100079.88
2022-09-26T05:55:08.547Z,100069.31
2022-09-26T05:57:55.178Z,100064.44
2022-09-26T06:00:26.393Z,100063.69
2022-09-26T06:03:03.581Z,100059.72
2022-09-26T06:05:43.181Z,100057.22
2022-09-26T06:08:15.945Z,100043.41
2022-09-26T06:10:50.451Z,100049.00
2022-09-26T06:13:17.940Z,100038.88
2022-09-26T06:15:49.839Z,100035.94
2022-09-26T06:18:16.327Z,100016.63
2022-09-26T06:20:42.708Z,100019.56
2022-09-26T06:23:11.513Z,100025.41
2022-09-26T06:25:39.585Z,100014.38
2022-09-26T06:28:06.694Z,100004.66
2022-09-26T06:30:34.176Z,100006.28
2022-09-26T06:33:09.233Z,100008.53
2022-09-26T06:36:06.364Z,99993.56
2022-09-26T06:38:35.602Z,99999.56
2022-09-26T06:41:04.808Z,99984.41
2022-09-26T06:43:31.348Z,99991.53
2022-09-26T06:46:09.576Z,99987.41
2022-09-26T06:48:56.306Z,99964.63
2022-09-26T06:51:46.687Z,99973.28
2022-09-26T06:54:13.090Z,99966.16
2022-09-26T06:56:39.441Z,99967.78
2022-09-26T06:59:06.042Z,99955.94
2022-09-26T07:01:34.704Z,99947.84
2022-09-26T07:04:09.765Z,99949.97
2022-09-26T07:06:44.563Z,99943.50
2022-09-26T07:09:12.827Z,99949.13
2022-09-26T07:12:13.446Z,99941.88
2022-09-26T07:14:37.998Z,99941.72
2022-09-26T07:17:24.828Z,99937.84
2022-09-26T07:20:11.271Z,99934.09
2022-09-26T07:23:05.222Z,99927.88
2022-09-26T07:25:34.487Z,99929.75
2022-09-26T07:28:02.159Z,99928.25
2022-09-26T07:30:41.787Z,99931.31
2022-09-26T07:33:14.830Z,99923.81
2022-09-26T07:35:51.034Z,99921.72
2022-09-26T07:38:18.841Z,99908.38
2022-09-26T07:40:46.791Z,99906.81
2022-09-26T07:43:20.158Z,99900.34
2022-09-26T07:46:09.947Z,99891.19
2022-09-26T07:48:56.320Z,99897.75
2022-09-26T07:51:41.422Z,99881.91
2022-09-26T07:54:13.036Z,99880.59
2022-09-26T07:56:58.393Z,99872.47
2022-09-26T07:59:35.653Z,99864.22
2022-09-26T08:02:30.448Z,99878.19
2022-09-26T08:05:00.923Z,99861.53
2022-09-26T08:07:30.155Z,99859.00
2022-09-26T08:10:23.273Z,99855.19
2022-09-26T08:13:12.618Z,99853.31
2022-09-26T08:16:06.025Z,99843.13
2022-09-26T08:18:37.258Z,99844.78
2022-09-26T08:21:07.242Z,99838.69
2022-09-26T08:23:34.577Z,99844.69
2022-09-26T08:26:21.142Z,99842.81
2022-09-26T08:28:50.252Z,99841.38
2022-09-26T08:31:17.316Z,99836.81
2022-09-26T08:33:44.084Z,99840.44
2022-09-26T08:36:12.753Z,99832.34
2022-09-26T08:38:56.571Z,99827.91
2022-09-26T08:42:23.734Z,99818.53
2022-09-26T08:45:55.163Z,99819.44
2022-09-26T08:48:47.992Z,99821.31
2022-09-26T08:51:40.205Z,99825.81
2022-09-26T08:54:18.171Z,99824.13
2022-09-26T08:56:57.661Z,99816.16
2022-09-26T08:59:43.525Z,99819.69
2022-09-26T09:02:22.944Z,99810.97
2022-09-26T09:05:06.633Z,99801.84
2022-09-26T09:07:38.507Z,99798.31
2022-09-26T09:10:11.198Z,99790.38
2022-09-26T09:12:55.617Z,99776.41
2022-09-26T09:15:58.530Z,99750.75
2022-09-26T09:18:53.097Z,99753.44
2022-09-26T09:22:07.361Z,99752.13
2022-09-26T09:24:59.796Z,99757.75
2022-09-26T09:28:02.523Z,99750.84
2022-09-26T09:30:49.725Z,99758.50
2022-09-26T09:33:47.410Z,99762.75
2022-09-26T09:36:34.411Z,99755.22
2022-09-26T09:39:32.009Z,99757.81
2022-09-26T09:42:09.910Z,99754.50
2022-09-26T09:44:46.731Z,99761.31
2022-09-26T09:47:16.289Z,99771.66
2022-09-26T09:49:44.662Z,99762.59
2022-09-26T09:52:29.165Z,99758.84
2022-09-26T09:55:23.031Z,99759.88
2022-09-26T09:58:00.147Z,99756.75
2022-09-26T10:00:27.675Z,99758.75
2022-09-26T10:03:41.827Z,99754.75
2022-09-26T10:06:46.457Z,99760.75
2022-09-26T10:09:39.260Z,99754.53
2022-09-26T10:12:17.209Z,99745.72
2022-09-26T10:15:07.489Z,99734.81
2022-09-26T10:18:23.623Z,99739.06
2022-09-26T10:21:02.369Z,99733.41
2022-09-26T10:23:46.653Z,99732.38
2022-09-26T10:26:37.696Z,99741.06
2022-09-26T10:29:23.407Z,99733.56
2022-09-26T10:31:56.258Z,99747.06
2022-09-26T10:34:31.991Z,99734.13
2022-09-26T10:37:21.600Z,99742.00
2022-09-26T10:40:16.544Z,99727.09
2022-09-26T10:42:46.946Z,99725.19
2022-09-26T10:45:27.135Z,99722.16
2022-09-26T10:49:01.953Z,99716.91
2022-09-26T10:51:55.414Z,99720.41
2022-09-26T10:54:32.782Z,99719.47
2022-09-26T10:57:00.763Z,99719.47
2022-09-26T10:59:36.121Z,99722.97
2022-09-26T11:02:04.327Z,99711.16
2022-09-26T11:04:53.874Z,99709.84
2022-09-26T11:07:52.963Z,99703.97
2022-09-26T11:10:46.535Z,99713.84
2022-09-26T11:13:26.850Z,99712.69
2022-09-26T11:16:08.749Z,99711.50
2022-09-26T11:18:42.934Z,99716.75
2022-09-26T11:21:28.355Z,99696.94
2022-09-26T11:24:11.589Z,99700.94
2022-09-26T11:27:19.389Z,99703.75
2022-09-26T11:29:53.083Z,99713.59
2022-09-26T11:32:30.037Z,99715.72
2022-09-26T11:35:03.483Z,99711.47
2022-09-26T11:37:50.677Z,99717.25
2022-09-26T11:40:39.194Z,99703.53
2022-09-26T11:43:13.509Z,99700.69
2022-09-26T11:46:15.085Z,99701.50
2022-09-26T11:49:17.549Z,99687.63
2022-09-26T11:52:33.570Z,99691.94
2022-09-26T11:55:20.774Z,99678.09
2022-09-26T11:57:56.043Z,99685.13
2022-09-26T12:00:38.173Z,99684.50
2022-09-26T12:03:37.750Z,99691.31
2022-09-26T12:06:34.974Z,99681.09
2022-09-26T12:09:20.732Z,99682.63
2022-09-26T12:12:21.455Z,99679.47
2022-09-26T12:15:11.322Z,99680.38
2022-09-26T12:17:54.133Z,99676.38
2022-09-26T12:20:34.922Z,99680.72
2022-09-26T12:23:19.160Z,99677.56
2022-09-26T12:26:25.952Z,99678.53
2022-09-26T12:29:10.919Z,99671.59
2022-09-26T12:32:02.824Z,99656.41
2022-09-26T12:34:58.145Z,99661.38
2022-09-26T12:37:42.557Z,99657.59
2022-09-26T12:40:29.048Z,99657.94
2022-09-26T12:43:13.867Z,99657.13
2022-09-26T12:45:58.711Z,99659.00
2022-09-26T12:48:42.074Z,99653.88
2022-09-26T12:51:16.346Z,99652.31
2022-09-26T12:54:05.717Z,99642.31
2022-09-26T12:56:48.001Z,99637.28
2022-09-26T12:59:35.280Z,99644.69
2022-09-26T13:02:42.220Z,99639.63
2022-09-26T13:05:15.408Z,99635.50
2022-09-26T13:08:09.618Z,99640.09
2022-09-26T13:10:38.109Z,99637.16
2022-09-26T13:13:24.639Z,99645.84
2022-09-26T13:16:25.409Z,99633.41
2022-09-26T13:18:58.775Z,99623.75
2022-09-26T13:21:47.410Z,99622.44
2022-09-26T13:24:32.811Z,99623.59
2022-09-26T13:27:20.061Z,99624.50
2022-09-26T13:30:00.961Z,99624.13
2022-09-26T13:32:49.973Z,99615.50
2022-09-26T13:35:23.517Z,99611.50
2022-09-26T13:38:08.262Z,99617.72
2022-09-26T13:40:46.030Z,99605.59
2022-09-26T13:43:20.360Z,99604.78
2022-09-26T13:46:19.946Z,99596.69
2022-09-26T13:49:13.481Z,99599.13
2022-09-26T13:51:49.399Z,99597.00
2022-09-26T13:54:27.125Z,99595.47
2022-09-26T13:56:54.347Z,99592.81
2022-09-26T13:59:21.239Z,99588.31
2022-09-26T14:02:26.391Z,99591.59
2022-09-26T14:05:13.830Z,99581.53
2022-09-26T14:07:58.990Z,99573.63
2022-09-26T14:10:43.171Z,99581.34
2022-09-26T14:13:12.572Z,99580.84
2022-09-26T14:15:48.091Z,99581.44
2022-09-26T14:18:32.476Z,99579.38
2022-09-26T14:21:16.577Z,99586.44
2022-09-26T14:23:45.699Z,99581.50
2022-09-26T14:26:26.969Z,99573.88
2022-09-26T14:29:24.877Z,99574.13
2022-09-26T14:32:10.274Z,99578.47
2022-09-26T14:34:47.746Z,99578.75
2022-09-26T14:37:26.323Z,99584.63
2022-09-26T14:40:07.963Z,99584.03
2022-09-26T14:42:43.467Z,99578.41
2022-09-26T14:45:16.426Z,99568.63
2022-09-26T14:47:55.004Z,99566.78
2022-09-26T14:50:33.850Z,99562.19
2022-09-26T14:53:09.869Z,99561.09
2022-09-26T14:55:36.429Z,99556.56
2022-09-26T14:58:15.854Z,99547.47
2022-09-26T15:00:48.011Z,99549.94
2022-09-26T15:03:17.710Z,99558.88
2022-09-26T15:05:46.454Z,99558.63
2022-09-26T15:08:27.721Z,99557.81
2022-09-26T15:10:57.573Z,99552.41
2022-09-26T15:13:34.291Z,99554.59
2022-09-26T15:16:13.820Z,99555.19
2022-09-26T15:18:44.981Z,99558.69
2022-09-26T15:21:40.498Z,99547.06
2022-09-26T15:24:32.804Z,99548.38
2022-09-26T15:27:25.463Z,99545.91
2022-09-26T15:29:57.911Z,99557.56
2022-09-26T15:32:30.001Z,99553.13
2022-09-26T15:34:57.190Z,99548.72
2022-09-26T15:37:31.561Z,99547.91
2022-09-26T15:40:12.216Z,99537.03
2022-09-26T15:42:57.113Z,99540.69
2022-09-26T15:45:32.876Z,99547.66
2022-09-26T15:48:01.886Z,99549.56
2022-09-26T15:50:41.916Z,99535.44
2022-09-26T15:53:22.810Z,99547.00
2022-09-26T15:56:03.474Z,99548.00
2022-09-26T15:58:55.194Z,99548.16
2022-09-26T16:01:25.601Z,99552.81
2022-09-26T16:04:04.551Z,99545.63
2022-09-26T16:06:35.270Z,99546.19
2022-09-26T16:09:21.476Z,99546.03
2022-09-26T16:11:57.786Z,99548.13
2022-09-26T16:14:31.042Z,99553.97
2022-09-26T16:17:32.407Z,99548.78
2022-09-26T16:20:04.585Z,99548.13
2022-09-26T16:22:36.797Z,99556.44
2022-09-26T16:25:15.245Z,99550.97
2022-09-26T16:27:42.553Z,99552.25
2022-09-26T16:30:21.682Z,99556.25
2022-09-26T16:32:48.173Z,99551.84
2022-09-26T16:35:23.906Z,99552.91
2022-09-26T16:38:23.102Z,99556.44
2022-09-26T16:40:54.839Z,99550.13
2022-09-26T16:43:29.308Z,99549.56
2022-09-26T16:46:04.916Z,99552.25
2022-09-26T16:48:34.656Z,99543.56
2022-09-26T16:51:21.763Z,99548.41
2022-09-26T16:54:19.290Z,99549.72
2022-09-26T16:56:51.469Z,99553.50
2022-09-26T16:59:28.721Z,99547.50
2022-09-26T17:01:58.003Z,99546.94
2022-09-26T17:04:31.238Z,99547.41
2022-09-26T17:06:59.077Z,99558.72
2022-09-26T17:09:29.616Z,99551.09
2022-09-26T17:12:00.230Z,99554.84
2022-09-26T17:14:30.259Z,99562.16
2022-09-26T17:16:58.955Z,99569.69
2022-09-26T17:19:29.551Z,99568.19
2022-09-26T17:21:55.998Z,99582.28
2022-09-26T17:24:25.503Z,99587.41
2022-09-26T17:27:00.768Z,99594.00
2022-09-26T17:29:30.370Z,99591.59
2022-09-26T17:31:59.077Z,99603.72
2022-09-26T17:34:28.274Z,99591.59
2022-09-26T17:36:57.364Z,99592.91
2022-09-26T17:39:27.188Z,99590.78
2022-09-26T17:41:54.923Z,99583.63
2022-09-26T17:44:21.895Z,99583.13
2022-09-26T17:46:51.825Z,99575.84
2022-09-26T17:49:29.991Z,99576.41
2022-09-26T17:51:58.288Z,99581.00
2022-09-26T17:54:30.116Z,99588.50
2022-09-26T17:56:57.035Z,99585.59
2022-09-26T17:59:24.932Z,99592.38
2022-09-26T18:01:54.888Z,99590.53
2022-09-26T18:04:28.521Z,99589.94
2022-09-26T18:06:59.734Z,99580.19
2022-09-26T18:09:35.108Z,99579.59
2022-09-26T18:12:03.937Z,99581.72
2022-09-26T18:14:33.157Z,99581.13
2022-09-26T18:17:01.260Z,99573.84
2022-09-26T18:19:27.738Z,99572.81
2022-09-26T18:21:56.168Z,99573.63
2022-09-26T18:24:27.197Z,99576.88
2022-09-26T18:26:57.036Z,99583.13
2022-09-26T18:29:31.920Z,99583.97
2022-09-26T18:31:59.675Z,99589.34
2022-09-26T18:34:26.120Z,99594.16
2022-09-26T18:36:56.782Z,99607.91
2022-09-26T18:39:24.907Z,99612.97
2022-09-26T18:41:58.029Z,99615.06
2022-09-26T18:44:24.857Z,99630.47
2022-09-26T18:46:51.473Z,99640.91
2022-09-26T18:49:18.053Z,99642.81
2022-09-26T18:51:45.771Z,99654.56
2022-09-26T18:54:14.632Z,99653.75
2022-09-26T18:57:00.621Z,99663.38
2022-09-26T18:59:30.803Z,99669.34
2022-09-26T19:01:59.479Z,99664.09
2022-09-26T19:04:26.257Z,99666.19
2022-09-26T19:06:59.244Z,99671.00
2022-09-26T19:09:30.623Z,99667.13
2022-09-26T19:11:57.318Z,99664.91
2022-09-26T19:14:26.254Z,99668.41
2022-09-26T19:16:53.579Z,99668.31
2022-09-26T19:19:21.361Z,99667.47
2022-09-26T19:21:51.343Z,99672.88
2022-09-26T19:24:36.635Z,99666.78
2022-09-26T19:27:23.153Z,99669.84
2022-09-26T19:30:10.673Z,99683.19
2022-09-26T19:32:42.365Z,99688.00
2022-09-26T19:35:25.827Z,99686.47
2022-09-26T19:37:52.735Z,99692.34
2022-09-26T19:40:21.253Z,99692.34
2022-09-26T19:42:47.752Z,99683.19
2022-09-26T19:45:15.081Z,99686.34
2022-09-26T19:47:44.652Z,99681.88
2022-09-26T19:50:21.403Z,99681.06
2022-09-26T19:52:50.224Z,99674.97
2022-09-26T19:55:21.200Z,99679.91
2022-09-26T19:57:47.689Z,99676.16
2022-09-26T20:00:14.631Z,99671.56
2022-09-26T20:02:41.376Z,99680.84
2022-09-26T20:05:21.623Z,99675.59
2022-09-26T20:07:48.349Z,99676.16
2022-09-26T20:10:20.186Z,99672.88
2022-09-26T20:12:51.011Z,99670.66
2022-09-26T20:15:20.290Z,99674.16
2022-09-26T20:17:47.813Z,99677.44
2022-09-26T20:20:17.002Z,99679.78
2022-09-26T20:22:44.266Z,99671.34
2022-09-26T20:25:26.608Z,99677.22
2022-09-26T20:27:54.206Z,99669.59
2022-09-26T20:30:39.403Z,99663.59
2022-09-26T20:33:06.147Z,99667.16
2022-09-26T20:35:36.681Z,99667.34
2022-09-26T20:38:07.544Z,99656.81
2022-09-26T20:40:35.255Z,99661.97
2022-09-26T20:43:05.400Z,99662.22
2022-09-26T20:45:38.210Z,99658.44
2022-09-26T20:48:08.557Z,99653.28
2022-09-26T20:50:38.349Z,99660.31
2022-09-26T20:53:22.775Z,99661.41
2022-09-26T20:55:50.164Z,99657.28
2022-09-26T20:58:16.559Z,99652.94
2022-09-26T21:00:44.467Z,99647.53
2022-09-26T21:03:12.571Z,99641.34
2022-09-26T21:05:39.223Z,99644.50
2022-09-26T21:08:28.577Z,99646.00
2022-09-26T21:10:56.023Z,99649.78
2022-09-26T21:13:23.234Z,99643.31
2022-09-26T21:15:50.403Z,99648.72
2022-09-26T21:18:28.364Z,99648.09
2022-09-26T21:21:03.886Z,99645.31
2022-09-26T21:23:49.520Z,99654.34
2022-09-26T21:26:18.553Z,99644.34
2022-09-26T21:28:45.017Z,99645.47
2022-09-26T21:31:20.663Z,99655.69
2022-09-26T21:33:47.605Z,99647.22
2022-09-26T21:36:14.234Z,99645.69
2022-09-26T21:38:40.611Z,99653.97
2022-09-26T21:41:09.270Z,99646.88
2022-09-26T21:43:41.509Z,99655.31
2022-09-26T21:46:08.168Z,99658.59
2022-09-26T21:48:34.708Z,99658.69
2022-09-26T21:51:03.126Z,99653.28
2022-09-26T21:53:39.333Z,99660.34
2022-09-26T21:56:14.599Z,99655.78
2022-09-26T21:58:42.486Z,99657.84
2022-09-26T22:01:09.237Z,99657.72
2022-09-26T22:03:35.788Z,99654.47
2022-09-26T22:06:07.356Z,99656.22
2022-09-26T22:08:34.109Z,99660.78
2022-09-26T22:11:00.521Z,99657.28
2022-09-26T22:13:27.274Z,99648.13
2022-09-26T22:15:53.733Z,99660.06
2022-09-26T22:18:20.166Z,99647.28
2022-09-26T22:20:46.559Z,99649.63
2022-09-26T22:23:13.077Z,99649.41
2022-09-26T22:25:42.821Z,99646.84
2022-09-26T22:28:09.419Z,99653.41
2022-09-26T22:30:39.018Z,99642.00
2022-09-26T22:33:05.436Z,99645.41
2022-09-26T22:35:31.798Z,99658.88
2022-09-26T22:37:58.137Z,99653.72
2022-09-26T22:40:24.524Z,99637.09
2022-09-26T22:42:50.965Z,99627.34
2022-09-26T22:45:17.790Z,99633.94
2022-09-26T22:47:44.153Z,99644.72
2022-09-26T22:50:10.537Z,99635.00
2022-09-26T22:52:36.927Z,99633.13
2022-09-26T22:55:03.643Z,99646.00
2022-09-26T22:57:32.571Z,99654.69
2022-09-26T22:59:58.926Z,99638.50
2022-09-26T23:02:25.339Z,99645.06
2022-09-26T23:04:51.753Z,99642.16
2022-09-26T23:07:19.705Z,99634.66
2022-09-26T23:09:46.283Z,99636.09
2022-09-26T23:12:13.258Z,99641.09
2022-09-26T23:14:39.830Z,99643.19
2022-09-26T23:17:06.314Z,99646.72
2022-09-26T23:19:32.719Z,99651.06
2022-09-26T23:21:59.497Z,99650.84
2022-09-26T23:24:25.866Z,99645.69
2022-09-26T23:26:52.336Z,99645.69
2022-09-26T23:29:18.969Z,99656.22
2022-09-26T23:31:45.665Z,99664.91
2022-09-26T23:34:12.093Z,99676.59
2022-09-26T23:36:38.465Z,99668.03
2022-09-26T23:39:04.840Z,99665.97
2022-09-26T23:41:31.216Z,99673.69
2022-09-26T23:43:57.632Z,99674.13
2022-09-26T23:46:24.127Z,99673.31
2022-09-26T23:48:50.599Z,99674.13
2022-09-26T23:51:17.021Z,99666.28
2022-09-26T23:53:43.517Z,99664.19
2022-09-26T23:56:13.529Z,99674.75
2022-09-26T23:58:40.869Z,99671.81
